Bloomfield, New Mexico
Current Conditions -  °F | °C
As of 6:53 PM on Saturday 25 Oct 2014 (Local Time) from KFMN Reporting Station
Clear Clear  
Wind Chill: 66°   Ceiling: Unl
Heat Index: 66°   Visibility: 10mi
Dew Point: 33°   Wind: 3mph
Humidity: 29%   Direction: 330°NNW
Pressure: 30.15"   Gusts: NA
Location:  36.71°N, 107.98°W
Report Text: KFMN 260053Z 33003KT 10SM CLR 19/01 A3015 RMK AO2 SLP181 T01890006
Loading
Personal Weather Stations






























Interactive Weather Map
Tropical Storm Tracking
New forecast layout! Learn more

10-Day Weather Forecast

Advertisements
Track Severe Weather on mobile